createdAt,value
2022-09-28T00:01:17.643Z,26.20
2022-09-28T00:03:47.191Z,25.10
2022-09-28T00:06:18.640Z,20.50
2022-09-28T00:08:47.425Z,20.20
2022-09-28T00:11:15.546Z,19.00
2022-09-28T00:13:43.977Z,20.50
2022-09-28T00:16:20.212Z,18.90
2022-09-28T00:18:55.108Z,24.20
2022-09-28T00:21:28.309Z,16.00
2022-09-28T00:24:17.270Z,14.80
2022-09-28T00:26:56.692Z,12.50
2022-09-28T00:29:33.611Z,13.40
2022-09-28T00:32:07.798Z,13.00
2022-09-28T00:34:38.101Z,12.00
2022-09-28T00:37:08.997Z,11.00
2022-09-28T00:39:38.532Z,9.00
2022-09-28T00:42:16.833Z,9.00
2022-09-28T00:44:59.047Z,9.20
2022-09-28T00:47:52.058Z,6.70
2022-09-28T00:50:33.017Z,6.40
2022-09-28T00:53:21.542Z,6.10
2022-09-28T00:55:57.368Z,7.50
2022-09-28T00:58:29.913Z,7.40
2022-09-28T01:00:59.567Z,6.50
2022-09-28T01:03:29.158Z,5.20
2022-09-28T01:06:01.803Z,5.00
2022-09-28T01:08:33.128Z,13.00
2022-09-28T01:11:01.518Z,5.10
2022-09-28T01:13:31.732Z,4.60
2022-09-28T01:16:08.229Z,4.90
2022-09-28T01:18:49.291Z,5.70
2022-09-28T01:21:30.040Z,4.40
2022-09-28T01:24:11.413Z,4.50
2022-09-28T01:26:56.376Z,3.80
2022-09-28T01:29:30.413Z,4.90
2022-09-28T01:32:19.961Z,5.30
2022-09-28T01:35:08.089Z,3.30
2022-09-28T01:37:52.134Z,4.00
2022-09-28T01:40:26.543Z,3.60
2022-09-28T01:42:59.883Z,2.80
2022-09-28T01:45:35.592Z,3.20
2022-09-28T01:48:14.332Z,3.00
2022-09-28T01:50:51.001Z,3.40
2022-09-28T01:53:36.104Z,3.50
2022-09-28T01:56:13.408Z,4.90
2022-09-28T01:59:03.469Z,3.60
2022-09-28T02:01:40.956Z,2.20
2022-09-28T02:04:17.381Z,3.30
2022-09-28T02:06:54.227Z,2.70
2022-09-28T02:09:33.581Z,2.40
2022-09-28T02:12:11.637Z,2.40
2022-09-28T02:14:44.231Z,3.40
2022-09-28T02:17:12.685Z,2.80
2022-09-28T02:19:41.381Z,3.90
2022-09-28T02:22:28.668Z,2.70
2022-09-28T02:25:00.060Z,5.00
2022-09-28T02:27:45.408Z,2.90
2022-09-28T02:30:14.829Z,3.50
2022-09-28T02:32:53.732Z,3.90
2022-09-28T02:35:22.944Z,5.90
2022-09-28T02:37:51.348Z,3.60
2022-09-28T02:40:28.907Z,3.70
2022-09-28T02:43:19.539Z,3.30
2022-09-28T02:46:08.843Z,3.20
2022-09-28T02:49:22.029Z,4.90
2022-09-28T02:52:21.020Z,3.20
2022-09-28T02:55:07.337Z,3.60
2022-09-28T02:57:55.860Z,3.70
2022-09-28T03:00:24.314Z,4.20
2022-09-28T03:03:12.548Z,3.30
2022-09-28T03:05:55.757Z,3.70
2022-09-28T03:08:50.128Z,3.20
2022-09-28T03:11:42.774Z,5.80
2022-09-28T03:14:11.712Z,4.80
2022-09-28T03:16:52.855Z,8.80
2022-09-28T03:19:25.454Z,4.90
2022-09-28T03:21:55.365Z,7.10
2022-09-28T03:24:23.289Z,5.60
2022-09-28T03:26:51.487Z,7.80
2022-09-28T03:29:22.372Z,7.10
2022-09-28T03:32:02.309Z,7.80
2022-09-28T03:34:30.280Z,8.40
2022-09-28T03:36:58.562Z,10.00
2022-09-28T03:39:26.424Z,8.80
2022-09-28T03:41:54.299Z,10.00
2022-09-28T03:44:22.628Z,9.70
2022-09-28T03:46:51.389Z,9.90
2022-09-28T03:49:19.472Z,10.40
2022-09-28T03:51:47.807Z,8.90
2022-09-28T03:54:16.235Z,10.10
2022-09-28T03:56:44.747Z,10.40
2022-09-28T03:59:12.811Z,10.60
2022-09-28T04:01:52.913Z,9.80
2022-09-28T04:04:21.033Z,12.60
2022-09-28T04:06:49.018Z,14.10
2022-09-28T04:09:17.450Z,11.10
2022-09-28T04:12:02.888Z,12.30
2022-09-28T04:14:31.788Z,11.10
2022-09-28T04:16:59.506Z,12.20
2022-09-28T04:19:31.186Z,12.90
2022-09-28T04:22:17.751Z,12.80
2022-09-28T04:24:46.627Z,13.00
2022-09-28T04:27:34.792Z,16.00
2022-09-28T04:30:04.249Z,19.90
2022-09-28T04:32:34.346Z,13.80
2022-09-28T04:35:02.519Z,13.80
2022-09-28T04:37:31.331Z,12.20
2022-09-28T04:39:59.593Z,14.90
2022-09-28T04:42:27.827Z,13.70
2022-09-28T04:44:57.849Z,13.70
2022-09-28T04:47:25.932Z,16.10
2022-09-28T04:49:54.236Z,17.00
2022-09-28T04:52:28.943Z,16.50
2022-09-28T04:54:56.776Z,16.20
2022-09-28T04:57:26.095Z,19.40
2022-09-28T04:59:55.833Z,18.30
2022-09-28T05:02:30.603Z,13.80
2022-09-28T05:05:05.431Z,17.10
2022-09-28T05:07:48.958Z,19.50
2022-09-28T05:10:19.168Z,16.20
2022-09-28T05:12:47.961Z,17.00
2022-09-28T05:15:15.917Z,17.40
2022-09-28T05:17:43.859Z,20.00
2022-09-28T05:20:22.128Z,16.40
2022-09-28T05:22:50.566Z,21.30
2022-09-28T05:25:19.328Z,20.50
2022-09-28T05:27:57.257Z,17.70
2022-09-28T05:30:40.068Z,18.90
2022-09-28T05:33:25.547Z,22.90
2022-09-28T05:36:07.784Z,15.70
2022-09-28T05:38:35.778Z,18.40
2022-09-28T05:41:06.605Z,19.00
2022-09-28T05:43:35.055Z,17.60
2022-09-28T05:46:06.565Z,22.80
2022-09-28T05:48:37.129Z,18.50
2022-09-28T05:51:05.034Z,20.70
2022-09-28T05:53:32.924Z,23.90
2022-09-28T05:56:01.442Z,34.20
2022-09-28T05:58:32.112Z,23.30
2022-09-28T06:01:00.555Z,19.60
2022-09-28T06:03:28.830Z,18.90
2022-09-28T06:06:03.398Z,16.10
2022-09-28T06:08:33.096Z,16.60
2022-09-28T06:11:31.929Z,20.00
2022-09-28T06:14:05.138Z,16.80
2022-09-28T06:16:35.085Z,18.70
2022-09-28T06:19:02.998Z,17.60
2022-09-28T06:21:54.153Z,18.00
2022-09-28T06:24:22.262Z,17.30
2022-09-28T06:26:50.251Z,20.00
2022-09-28T06:29:24.030Z,17.50
2022-09-28T06:31:53.288Z,18.50
2022-09-28T06:34:21.533Z,16.60
2022-09-28T06:36:49.952Z,16.30
2022-09-28T06:39:18.169Z,16.70
2022-09-28T06:41:46.042Z,17.50
2022-09-28T06:44:16.676Z,19.90
2022-09-28T06:47:22.270Z,15.10
2022-09-28T06:50:14.776Z,15.00
2022-09-28T06:53:12.153Z,11.30
2022-09-28T06:56:02.618Z,15.20
2022-09-28T06:58:32.412Z,12.70
2022-09-28T07:01:01.225Z,13.70
2022-09-28T07:03:32.161Z,15.30
2022-09-28T07:06:27.898Z,12.20
2022-09-28T07:09:28.502Z,15.10
2022-09-28T07:12:23.445Z,15.30
2022-09-28T07:14:57.709Z,14.80
2022-09-28T07:17:29.351Z,13.10
2022-09-28T07:20:10.890Z,15.20
2022-09-28T07:22:44.513Z,17.70
2022-09-28T07:25:18.401Z,13.50
2022-09-28T07:28:10.017Z,18.90
2022-09-28T07:30:58.411Z,15.80
2022-09-28T07:33:47.213Z,10.80
2022-09-28T07:36:20.937Z,10.70
2022-09-28T07:38:48.938Z,10.00
2022-09-28T07:41:22.620Z,21.00
2022-09-28T07:44:06.247Z,10.70
2022-09-28T07:46:41.205Z,12.40
2022-09-28T07:49:16.881Z,10.90
2022-09-28T07:52:03.347Z,10.50
2022-09-28T07:54:31.368Z,12.00
2022-09-28T07:57:16.413Z,9.00
2022-09-28T07:59:55.423Z,9.10
2022-09-28T08:02:42.270Z,10.30
2022-09-28T08:05:10.953Z,11.10
2022-09-28T08:07:38.872Z,7.80
2022-09-28T08:10:10.634Z,10.90
2022-09-28T08:13:04.754Z,9.90
2022-09-28T08:15:40.497Z,8.60
2022-09-28T08:18:23.945Z,10.70
2022-09-28T08:21:13.050Z,11.00
2022-09-28T08:23:41.147Z,7.40
2022-09-28T08:26:14.569Z,6.90
2022-09-28T08:28:45.303Z,8.50
2022-09-28T08:31:52.140Z,6.00
2022-09-28T08:34:39.794Z,8.50
2022-09-28T08:37:37.405Z,7.10
2022-09-28T08:40:26.006Z,7.20
2022-09-28T08:43:39.925Z,9.40
2022-09-28T08:46:42.300Z,7.30
2022-09-28T08:49:45.206Z,5.90
2022-09-28T08:52:39.921Z,5.90
2022-09-28T08:55:32.333Z,6.30
2022-09-28T08:58:06.767Z,6.70
2022-09-28T09:00:49.174Z,5.60
2022-09-28T09:03:23.910Z,4.20
2022-09-28T09:06:40.914Z,3.70
2022-09-28T09:10:03.457Z,8.40
2022-09-28T09:12:37.950Z,6.50
2022-09-28T09:15:19.788Z,4.10
2022-09-28T09:18:07.093Z,5.00
2022-09-28T09:20:50.913Z,6.60
2022-09-28T09:23:44.445Z,4.40
2022-09-28T09:26:24.804Z,5.00
2022-09-28T09:29:03.177Z,6.20
2022-09-28T09:31:51.919Z,6.30
2022-09-28T09:34:38.077Z,11.80
2022-09-28T09:37:34.590Z,7.60
2022-09-28T09:40:31.325Z,6.00
2022-09-28T09:43:42.184Z,5.40
2022-09-28T09:47:08.963Z,6.40
2022-09-28T09:50:05.492Z,5.90
2022-09-28T09:52:55.080Z,5.10
2022-09-28T09:55:43.696Z,5.90
2022-09-28T09:58:42.592Z,9.30
2022-09-28T10:01:30.095Z,3.00
2022-09-28T10:04:27.702Z,6.00
2022-09-28T10:07:03.028Z,7.20
2022-09-28T10:09:41.537Z,9.00
2022-09-28T10:12:32.289Z,10.00
2022-09-28T10:15:03.496Z,10.60
2022-09-28T10:17:35.652Z,10.00
2022-09-28T10:20:23.748Z,4.60
2022-09-28T10:23:06.938Z,7.90
2022-09-28T10:25:38.073Z,9.30
2022-09-28T10:28:07.952Z,7.60
2022-09-28T10:30:42.200Z,7.40
2022-09-28T10:33:29.452Z,12.00
2022-09-28T10:36:00.590Z,12.90
2022-09-28T10:38:30.954Z,18.00
2022-09-28T10:41:12.274Z,17.30
2022-09-28T10:44:07.013Z,13.60
2022-09-28T10:46:44.949Z,16.10
2022-09-28T10:49:22.570Z,14.30
2022-09-28T10:51:56.697Z,12.80
2022-09-28T10:54:37.731Z,19.90
2022-09-28T10:57:27.221Z,16.40
2022-09-28T10:59:59.089Z,10.90
2022-09-28T11:02:40.225Z,13.10
2022-09-28T11:05:27.914Z,17.80
2022-09-28T11:10:34.153Z,14.20
2022-09-28T11:13:12.650Z,13.00
2022-09-28T11:15:44.328Z,11.60
2022-09-28T11:18:34.680Z,13.70
2022-09-28T11:21:32.805Z,10.80
2022-09-28T11:24:19.654Z,11.30
2022-09-28T11:26:52.665Z,17.70
2022-09-28T11:29:43.559Z,13.00
2022-09-28T11:32:31.446Z,9.30
2022-09-28T11:35:43.998Z,10.80
2022-09-28T11:38:31.889Z,6.10
2022-09-28T11:41:37.556Z,12.20
2022-09-28T11:44:35.935Z,10.60
2022-09-28T11:47:20.591Z,7.30
2022-09-28T11:49:57.505Z,7.60
2022-09-28T11:52:57.454Z,4.60
2022-09-28T11:55:34.700Z,6.20
2022-09-28T11:58:18.055Z,10.60
2022-09-28T12:00:58.229Z,6.10
2022-09-28T12:03:43.195Z,7.30
2022-09-28T12:06:18.550Z,5.90
2022-09-28T12:08:54.541Z,8.50
2022-09-28T12:11:52.371Z,6.50
2022-09-28T12:14:34.693Z,4.80
2022-09-28T12:17:48.386Z,6.90
2022-09-28T12:20:19.509Z,7.50
2022-09-28T12:22:59.738Z,4.40
2022-09-28T12:25:49.162Z,4.80
2022-09-28T12:28:28.352Z,5.50
2022-09-28T12:31:11.076Z,5.20
2022-09-28T12:33:48.043Z,4.70
2022-09-28T12:36:34.697Z,5.20
2022-09-28T12:39:35.648Z,7.50
2022-09-28T12:42:18.005Z,6.80
2022-09-28T12:44:55.919Z,6.40
2022-09-28T12:47:55.552Z,6.40
2022-09-28T12:50:44.019Z,2.80
2022-09-28T12:53:24.991Z,6.20
2022-09-28T12:56:00.657Z,4.10
2022-09-28T12:59:00.178Z,3.50
2022-09-28T13:01:59.291Z,13.00
2022-09-28T13:04:48.834Z,4.40
2022-09-28T13:07:45.477Z,6.30
2022-09-28T13:10:52.071Z,3.80
2022-09-28T13:13:39.379Z,4.90
2022-09-28T13:16:17.798Z,4.30
2022-09-28T13:18:51.869Z,13.30
2022-09-28T13:21:41.728Z,4.00
2022-09-28T13:24:31.676Z,4.80
2022-09-28T13:27:12.106Z,3.40
2022-09-28T13:29:42.542Z,4.20
2022-09-28T13:32:12.860Z,3.60
2022-09-28T13:34:40.873Z,3.20
2022-09-28T13:37:21.579Z,3.60
2022-09-28T13:39:52.630Z,3.40
2022-09-28T13:42:39.385Z,3.10
2022-09-28T13:45:22.516Z,2.50
2022-09-28T13:47:51.862Z,5.90
2022-09-28T13:50:51.880Z,3.60
2022-09-28T13:53:39.599Z,3.70
2022-09-28T13:56:42.084Z,4.20
2022-09-28T13:59:18.933Z,4.30
2022-09-28T14:02:06.769Z,4.90
2022-09-28T14:04:55.092Z,3.80
2022-09-28T14:07:35.026Z,2.60
2022-09-28T14:10:52.250Z,3.00
2022-09-28T14:13:41.923Z,2.50
2022-09-28T14:16:19.566Z,3.20
2022-09-28T14:19:08.282Z,2.90
2022-09-28T14:22:04.653Z,4.30
2022-09-28T14:24:59.690Z,3.10
2022-09-28T14:27:52.710Z,7.30
2022-09-28T14:30:25.105Z,3.00
2022-09-28T14:32:58.625Z,3.50
2022-09-28T14:35:48.462Z,3.80
2022-09-28T14:38:41.411Z,6.60
2022-09-28T14:41:31.353Z,2.80
2022-09-28T14:44:08.743Z,17.50
2022-09-28T14:46:45.711Z,4.20
2022-09-28T14:49:18.259Z,4.40
2022-09-28T14:51:53.320Z,7.40
2022-09-28T14:54:23.809Z,2.70
2022-09-28T14:56:57.344Z,4.80
2022-09-28T14:59:36.395Z,5.60
2022-09-28T15:02:10.495Z,5.20
2022-09-28T15:04:53.637Z,4.40
2022-09-28T15:07:28.807Z,2.60
2022-09-28T15:09:58.809Z,5.90
2022-09-28T15:12:31.174Z,10.30
2022-09-28T15:15:08.661Z,3.90
2022-09-28T15:17:50.802Z,6.80
2022-09-28T15:20:24.696Z,4.10
2022-09-28T15:22:58.416Z,4.20
2022-09-28T15:25:32.067Z,4.10
2022-09-28T15:30:36.811Z,8.40
2022-09-28T15:33:24.188Z,12.10
2022-09-28T15:35:54.878Z,18.20
2022-09-28T15:38:24.109Z,24.70
2022-09-28T15:40:52.204Z,42.40
2022-09-28T15:43:33.066Z,31.50
2022-09-28T15:46:20.660Z,44.80
2022-09-28T15:48:55.441Z,57.10
2022-09-28T15:51:25.213Z,41.80
2022-09-28T15:53:58.961Z,20.80
2022-09-28T15:56:28.496Z,19.20
2022-09-28T15:59:15.002Z,9.80
2022-09-28T16:01:45.624Z,20.10
2022-09-28T16:04:38.894Z,16.90
2022-09-28T16:07:11.997Z,18.90
2022-09-28T16:10:14.115Z,15.10
2022-09-28T16:12:52.809Z,23.00
2022-09-28T16:15:37.531Z,22.70
2022-09-28T16:18:20.679Z,23.00
2022-09-28T16:20:52.302Z,43.60
2022-09-28T16:23:24.572Z,31.00
2022-09-28T16:25:52.642Z,18.30
2022-09-28T16:28:34.729Z,18.70
2022-09-28T16:31:07.784Z,19.30
2022-09-28T16:33:59.092Z,18.30
2022-09-28T16:36:39.000Z,24.80
2022-09-28T16:39:06.787Z,17.20
2022-09-28T16:41:34.726Z,12.40
2022-09-28T16:44:02.927Z,19.30
2022-09-28T16:46:37.732Z,24.60
2022-09-28T16:49:08.118Z,22.80
2022-09-28T16:51:40.143Z,16.30
2022-09-28T16:54:42.194Z,26.20
2022-09-28T16:57:16.768Z,75.70
2022-09-28T16:59:44.757Z,98.40
2022-09-28T17:05:08.331Z,266.60
2022-09-28T17:07:36.831Z,166.60
2022-09-28T17:10:23.638Z,156.00
2022-09-28T17:12:52.126Z,166.20
2022-09-28T17:15:20.417Z,104.60
2022-09-28T17:17:48.945Z,30.20
2022-09-28T17:20:28.258Z,17.90
2022-09-28T17:22:56.453Z,14.40
2022-09-28T17:25:26.284Z,20.70
2022-09-28T17:27:57.560Z,23.10
2022-09-28T17:30:25.942Z,12.20
2022-09-28T17:32:54.001Z,8.90
2022-09-28T17:35:25.107Z,3.90
2022-09-28T17:37:53.944Z,10.70
2022-09-28T17:40:29.880Z,3.00
2022-09-28T17:43:00.153Z,18.40
2022-09-28T17:45:29.386Z,11.40
2022-09-28T17:47:58.044Z,6.10
2022-09-28T17:50:29.852Z,2.40
2022-09-28T17:53:06.666Z,5.00
2022-09-28T17:55:37.318Z,5.20
2022-09-28T17:58:16.531Z,8.40
2022-09-28T18:00:46.310Z,26.30
2022-09-28T18:03:25.305Z,28.70
2022-09-28T18:06:03.434Z,37.80
2022-09-28T18:08:31.606Z,54.10
2022-09-28T18:11:01.798Z,141.40
2022-09-28T18:13:30.316Z,71.00
2022-09-28T18:15:58.487Z,51.10
2022-09-28T18:18:26.527Z,30.80
2022-09-28T18:20:54.419Z,29.30
2022-09-28T18:23:22.463Z,49.10
2022-09-28T18:25:50.553Z,27.80
2022-09-28T18:28:25.079Z,19.00
2022-09-28T18:30:59.110Z,14.60
2022-09-28T18:33:33.813Z,16.90
2022-09-28T18:36:02.428Z,17.40
2022-09-28T18:38:30.613Z,27.30
2022-09-28T18:41:08.556Z,36.30
2022-09-28T18:43:37.309Z,47.40
2022-09-28T18:46:10.326Z,34.90
2022-09-28T18:48:58.179Z,30.40
2022-09-28T18:51:26.573Z,57.60
2022-09-28T18:53:54.801Z,50.10
2022-09-28T18:56:23.430Z,55.60
2022-09-28T18:58:52.706Z,34.10
2022-09-28T19:01:30.469Z,30.80
2022-09-28T19:04:24.710Z,18.80
2022-09-28T19:06:58.457Z,48.10
2022-09-28T19:09:27.462Z,80.30
2022-09-28T19:11:55.668Z,213.80
2022-09-28T19:14:23.881Z,342.10
2022-09-28T19:16:52.939Z,65.00
2022-09-28T19:19:21.296Z,100.90
2022-09-28T19:21:50.166Z,113.20
2022-09-28T19:24:19.828Z,87.60
2022-09-28T19:26:48.974Z,25.40
2022-09-28T19:29:37.856Z,11.00
2022-09-28T19:32:29.986Z,54.20
2022-09-28T19:34:58.144Z,23.40
2022-09-28T19:37:26.232Z,42.90
2022-09-28T19:39:54.076Z,36.60
2022-09-28T19:42:28.579Z,60.00
2022-09-28T19:44:56.620Z,62.70
2022-09-28T19:47:24.609Z,41.30
2022-09-28T19:49:52.841Z,20.50
2022-09-28T19:52:20.908Z,12.70
2022-09-28T19:54:57.330Z,72.00
2022-09-28T19:57:28.711Z,34.20
2022-09-28T20:00:02.170Z,28.00
2022-09-28T20:02:34.765Z,23.60
2022-09-28T20:05:03.594Z,29.10
2022-09-28T20:07:33.490Z,132.10
2022-09-28T20:10:01.297Z,55.40
2022-09-28T20:12:29.303Z,46.40
2022-09-28T20:14:57.935Z,40.50
2022-09-28T20:17:25.776Z,50.10
2022-09-28T20:19:54.159Z,48.30
2022-09-28T20:22:22.360Z,68.90
2022-09-28T20:24:51.219Z,57.50
2022-09-28T20:27:22.004Z,38.90
2022-09-28T20:29:52.125Z,30.70
2022-09-28T20:32:22.257Z,43.40
2022-09-28T20:34:50.097Z,24.30
2022-09-28T20:37:18.775Z,21.20
2022-09-28T20:39:47.013Z,32.50
2022-09-28T20:42:22.344Z,26.70
2022-09-28T20:44:50.504Z,17.20
2022-09-28T20:47:19.901Z,18.40
2022-09-28T20:49:48.093Z,16.80
2022-09-28T20:52:17.250Z,19.80
2022-09-28T20:54:45.558Z,16.20
2022-09-28T20:57:22.086Z,18.50
2022-09-28T20:59:54.670Z,13.10
2022-09-28T21:02:23.132Z,11.90
2022-09-28T21:04:51.209Z,20.70
2022-09-28T21:07:19.361Z,19.30
2022-09-28T21:09:53.749Z,24.80
2022-09-28T21:12:21.580Z,27.20
2022-09-28T21:14:49.369Z,28.30
2022-09-28T21:17:17.250Z,39.30
2022-09-28T21:19:45.435Z,19.90
2022-09-28T21:22:13.518Z,12.90
2022-09-28T21:24:45.697Z,13.70
2022-09-28T21:27:13.506Z,10.60
2022-09-28T21:29:41.324Z,10.50
2022-09-28T21:32:09.285Z,8.50
2022-09-28T21:34:37.500Z,10.00
2022-09-28T21:37:05.561Z,9.60
2022-09-28T21:39:33.309Z,11.80
2022-09-28T21:44:35.063Z,8.10
2022-09-28T21:47:02.820Z,8.30
2022-09-28T21:49:31.546Z,5.90
2022-09-28T21:51:59.655Z,8.40
2022-09-28T21:54:29.008Z,6.10
2022-09-28T21:56:57.073Z,43.50
2022-09-28T21:59:25.044Z,40.00
2022-09-28T22:01:53.028Z,48.90
2022-09-28T22:04:21.522Z,8.00
2022-09-28T22:06:49.376Z,6.50
2022-09-28T22:09:17.328Z,15.10
2022-09-28T22:11:45.198Z,17.30
2022-09-28T22:14:13.228Z,9.60
2022-09-28T22:16:41.212Z,14.10
2022-09-28T22:19:09.073Z,8.90
2022-09-28T22:21:37.094Z,9.30
2022-09-28T22:24:07.386Z,6.60
2022-09-28T22:26:42.168Z,6.00
2022-09-28T22:29:16.988Z,4.60
2022-09-28T22:31:51.191Z,5.10
2022-09-28T22:34:22.985Z,11.40
2022-09-28T22:36:50.719Z,7.90
2022-09-28T22:39:19.032Z,7.80
2022-09-28T22:41:53.306Z,11.30
2022-09-28T22:44:21.965Z,41.60
2022-09-28T22:46:49.683Z,47.70
2022-09-28T22:49:18.051Z,34.40
2022-09-28T22:51:45.826Z,36.80
2022-09-28T22:54:16.767Z,36.80
2022-09-28T22:56:44.577Z,34.10
2022-09-28T22:59:12.484Z,36.70
2022-09-28T23:01:40.534Z,29.00
2022-09-28T23:04:15.160Z,25.50
2022-09-28T23:06:43.043Z,24.40
2022-09-28T23:09:10.841Z,20.10
2022-09-28T23:11:38.600Z,24.40
2022-09-28T23:14:06.691Z,42.20
2022-09-28T23:16:34.660Z,26.40
2022-09-28T23:19:02.545Z,16.90
2022-09-28T23:21:31.360Z,16.10
2022-09-28T23:24:03.368Z,18.10
2022-09-28T23:26:33.319Z,17.60
2022-09-28T23:29:01.356Z,19.20
2022-09-28T23:31:31.805Z,24.80
2022-09-28T23:34:02.186Z,26.00
2022-09-28T23:36:30.667Z,14.30
2022-09-28T23:38:58.439Z,6.20
2022-09-28T23:41:26.374Z,5.30
2022-09-28T23:43:54.197Z,11.70
2022-09-28T23:46:22.267Z,4.60
2022-09-28T23:48:50.306Z,5.40
2022-09-28T23:51:18.574Z,11.10
2022-09-28T23:53:47.084Z,4.40
2022-09-28T23:56:15.496Z,4.20
2022-09-28T23:58:43.456Z,7.10
